Overview Statistics Trail Chart Weather Telemetry Raw packets
 

This is the latest recevied weather packets stored in our database for station/object 9M4GEK-3. If no packets are shown the sender has not sent any weather packets the latest 10 day(s).

<< 6 7 8 9 10 11 12 >>
Time Temp. Humidity Pressure Rain* Wind** Luminosity Snow
1788469678 28.89° C 63% 1010.5 hPa - - - -
1788469530 29.44° C 63% 1010.4 hPa - - - -
1788469376 29.44° C 63% 1010.3 hPa - - - -
1788469348 27.78° C 70% 1009.9 hPa - - - -
1788468447 27.78° C 71% 1009.5 hPa - - - -
1788468388 29.44° C 62% 1010.1 hPa - - - -
1788467916 29.44° C 62% 1010 hPa - - - -
1788467548 27.78° C 70% 1009.5 hPa - - - -
1788466647 27.78° C 71% 1009.5 hPa - - - -
1788465849 30° C 60% 1009.2 hPa - - - -
1788465747 27.78° C 71% 1009.7 hPa - - - -
1788464847 27.78° C 71% 1009.6 hPa - - - -
1788464511 30° C 60% 1008.9 hPa - - - -
1788463948 27.78° C 70% 1009.7 hPa - - - -
1788463585 30° C 59% 1008.6 hPa - - - -
1788463048 28.33° C 70% 1010 hPa - - - -
1788462643 30.56° C 59% 1008.4 hPa - - - -
1788462148 27.78° C 70% 1009.9 hPa - - - -
1788461918 30.56° C 58% 1008.2 hPa - - - -
1788461248 27.78° C 71% 1010.1 hPa - - - -
1788461169 31.11° C 57% 1008.1 hPa - - - -
1788460348 27.78° C 70% 1009.9 hPa - - - -
1788459560 32.22° C 55% 1007.9 hPa - - - -
1788459447 27.78° C 70% 1010.1 hPa - - - -
1788458547 28.33° C 69% 1010.2 hPa - - - -

* Rain since midnight (hover to see other rain measurements)
** Current wind speed in m/s (hover to see current wind gust speed)